createdAt,value
2019-02-20T04:49:50.199Z,72.28
2019-02-20T04:52:20.793Z,72.45
2019-02-20T04:54:51.260Z,72.25
2019-02-20T04:57:21.758Z,71.84
2019-02-20T04:59:52.173Z,71.39
2019-02-20T05:02:22.606Z,71.05
2019-02-20T05:04:52.997Z,70.62
2019-02-20T05:07:23.460Z,70.12
2019-02-20T05:09:53.995Z,70.18
2019-02-20T05:12:24.397Z,69.74
2019-02-20T05:14:54.769Z,69.37
2019-02-20T05:17:25.176Z,69.26
2019-02-20T05:19:55.554Z,69.16
2019-02-20T05:22:25.956Z,68.84
2019-02-20T05:24:56.426Z,68.53
2019-02-20T05:27:26.858Z,68.58
2019-02-20T05:29:57.240Z,68.40
2019-02-20T05:32:27.625Z,68.54
2019-02-20T05:34:58.855Z,68.63
2019-02-20T05:37:29.285Z,68.78
2019-02-20T05:39:59.690Z,68.59
2019-02-20T05:42:30.073Z,68.57
2019-02-20T05:45:00.507Z,68.43
2019-02-20T05:47:32.024Z,68.58
2019-02-20T05:50:02.424Z,68.58
2019-02-20T05:52:32.812Z,68.43
2019-02-20T05:55:03.486Z,68.37
2019-02-20T05:57:33.863Z,68.35
2019-02-20T06:00:09.652Z,68.43
2019-02-20T06:02:41.576Z,68.22
2019-02-20T06:05:11.973Z,68.06
2019-02-20T06:07:42.373Z,68.09
2019-02-20T06:10:12.757Z,68.08
2019-02-20T06:12:43.146Z,68.02
2019-02-20T06:15:13.586Z,67.90
2019-02-20T06:17:43.985Z,67.51
2019-02-20T06:20:15.361Z,67.53
2019-02-20T06:22:45.748Z,67.66
2019-02-20T06:25:17.782Z,67.82
2019-02-20T06:27:48.163Z,67.81
2019-02-20T06:30:18.564Z,67.91
2019-02-20T06:32:48.953Z,68.14
2019-02-20T06:35:19.350Z,67.92
2019-02-20T06:38:46.101Z,67.75
2019-02-20T06:41:16.509Z,67.66
2019-02-20T06:43:48.111Z,67.60
2019-02-20T06:46:18.783Z,67.37
2019-02-20T06:48:49.204Z,67.57
2019-02-20T06:51:19.733Z,67.58
2019-02-20T06:53:50.208Z,67.39
2019-02-20T06:56:20.660Z,67.31
2019-02-20T06:58:51.224Z,67.17
2019-02-20T07:01:21.661Z,67.47
2019-02-20T07:03:52.054Z,67.48
2019-02-20T07:06:38.081Z,67.81
2019-02-20T07:09:43.508Z,67.67
2019-02-20T07:12:20.368Z,67.66
2019-02-20T07:14:56.653Z,67.09
2019-02-20T07:17:34.168Z,67.03
2019-02-20T07:20:23.120Z,66.72
2019-02-20T07:22:56.834Z,66.47
2019-02-20T07:25:39.241Z,66.24
2019-02-20T07:28:32.290Z,66.48
2019-02-20T07:31:02.751Z,67.08
2019-02-20T07:33:33.179Z,67.08
2019-02-20T07:36:04.647Z,66.95
2019-02-20T07:38:35.061Z,66.68
2019-02-20T07:41:05.460Z,66.60
2019-02-20T07:43:35.854Z,66.33
2019-02-20T07:46:06.321Z,66.03
2019-02-20T07:48:36.786Z,65.98
2019-02-20T07:51:07.197Z,65.79
2019-02-20T07:53:37.713Z,65.46
2019-02-20T07:56:08.106Z,65.38
2019-02-20T07:58:38.636Z,64.96
2019-02-20T08:01:09.085Z,64.25
2019-02-20T08:03:39.518Z,64.35
2019-02-20T08:06:09.950Z,64.50
2019-02-20T08:08:40.360Z,64.22
2019-02-20T08:11:10.784Z,64.67
2019-02-20T08:13:41.337Z,63.85
2019-02-20T08:19:01.808Z,62.04
2019-02-20T08:21:32.277Z,61.30
2019-02-20T08:24:02.909Z,60.86
2019-02-20T08:26:33.405Z,61.04
2019-02-20T08:29:03.967Z,61.39
2019-02-20T08:31:34.357Z,60.88
2019-02-20T08:34:04.766Z,60.81
2019-02-20T08:36:35.156Z,60.68
2019-02-20T08:39:05.782Z,60.61
2019-02-20T08:41:37.797Z,60.19
2019-02-20T08:44:08.183Z,60.18
2019-02-20T08:46:38.716Z,59.90
2019-02-20T08:49:09.133Z,59.16
2019-02-20T08:51:39.567Z,58.64
2019-02-20T08:54:10.079Z,58.15
2019-02-20T08:56:40.551Z,58.88
2019-02-20T08:59:11.065Z,59.09
2019-02-20T09:01:41.786Z,59.10
2019-02-20T09:04:13.448Z,59.78
2019-02-20T09:06:43.879Z,59.19
2019-02-20T09:09:14.270Z,58.80
2019-02-20T09:11:45.654Z,58.17
2019-02-20T09:14:16.283Z,57.63
2019-02-20T09:16:46.706Z,57.35
2019-02-20T09:19:17.247Z,57.45
2019-02-20T09:21:47.686Z,57.41
2019-02-20T09:24:18.253Z,57.63
2019-02-20T09:26:48.639Z,58.08
2019-02-20T09:29:19.157Z,57.64
2019-02-20T09:31:51.252Z,57.84
2019-02-20T09:34:21.755Z,57.57
2019-02-20T09:36:52.287Z,56.22
2019-02-20T09:39:36.946Z,56.04
2019-02-20T09:42:08.206Z,56.28
2019-02-20T09:44:42.308Z,56.64
2019-02-20T09:47:12.781Z,56.66
2019-02-20T09:49:43.792Z,56.42
2019-02-20T09:52:14.196Z,56.93
2019-02-20T09:54:45.709Z,56.42
2019-02-20T09:57:16.201Z,56.22
2019-02-20T09:59:47.671Z,55.68
2019-02-20T10:02:18.055Z,55.45
2019-02-20T10:04:48.628Z,55.52
2019-02-20T10:07:19.158Z,54.62
2019-02-20T10:09:49.631Z,54.73
2019-02-20T10:12:20.245Z,54.20
2019-02-20T10:14:50.750Z,53.51
2019-02-20T10:17:21.280Z,53.22
2019-02-20T10:19:51.810Z,52.84
2019-02-20T10:22:22.411Z,53.03
2019-02-20T10:24:52.806Z,52.98
2019-02-20T10:27:23.259Z,52.48
2019-02-20T10:29:53.665Z,52.26
2019-02-20T10:32:24.112Z,51.07
2019-02-20T10:34:54.752Z,50.65
2019-02-20T10:37:25.284Z,50.41
2019-02-20T10:39:57.242Z,49.18
2019-02-20T10:42:27.675Z,49.03
2019-02-20T10:44:58.102Z,49.36
2019-02-20T10:47:28.525Z,49.03
2019-02-20T10:49:58.934Z,48.55
2019-02-20T10:52:29.525Z,49.11
2019-02-20T10:55:00.235Z,49.37
2019-02-20T10:57:30.618Z,48.75
2019-02-20T11:00:01.176Z,48.68
2019-02-20T11:02:31.821Z,48.60
2019-02-20T11:05:02.286Z,49.15
2019-02-20T11:07:32.768Z,49.81
2019-02-20T11:10:03.200Z,49.80
2019-02-20T11:12:33.940Z,50.20
2019-02-20T11:15:05.950Z,49.73
2019-02-20T11:17:37.424Z,50.09
2019-02-20T11:20:10.233Z,50.18
2019-02-20T11:22:40.804Z,50.40
2019-02-20T11:25:13.997Z,50.32
2019-02-20T11:27:44.500Z,50.63
2019-02-20T11:30:23.115Z,50.21
2019-02-20T11:32:53.547Z,50.14
2019-02-20T11:35:23.972Z,50.46
2019-02-20T11:37:54.501Z,50.50
2019-02-20T11:40:24.899Z,50.20
2019-02-20T11:42:55.409Z,49.50
2019-02-20T11:45:25.991Z,49.96
2019-02-20T11:47:56.422Z,50.00
2019-02-20T11:50:26.867Z,49.63
2019-02-20T11:52:57.371Z,49.12
2019-02-20T11:55:27.766Z,48.96
2019-02-20T11:58:00.746Z,48.69
2019-02-20T12:00:31.455Z,48.73
2019-02-20T12:03:01.954Z,48.82
2019-02-20T12:05:32.483Z,49.39
2019-02-20T12:08:03.012Z,49.40
2019-02-20T12:10:33.448Z,48.97
2019-02-20T12:13:04.077Z,48.60
2019-02-20T12:15:34.511Z,48.38
2019-02-20T12:18:05.042Z,48.19
2019-02-20T12:20:35.567Z,47.95
2019-02-20T12:23:06.139Z,48.30
2019-02-20T12:25:36.629Z,47.98
2019-02-20T12:28:07.163Z,48.12
2019-02-20T12:30:38.134Z,48.25
2019-02-20T12:33:08.835Z,48.83
2019-02-20T12:35:39.271Z,48.82
2019-02-20T12:38:09.692Z,48.71
2019-02-20T12:40:40.120Z,48.16
2019-02-20T12:43:10.553Z,47.91
2019-02-20T12:45:40.975Z,48.03
2019-02-20T12:48:11.406Z,47.96
2019-02-20T12:50:42.956Z,47.75
2019-02-20T12:53:13.397Z,47.81
2019-02-20T12:55:43.821Z,47.45
2019-02-20T12:58:14.351Z,47.62
2019-02-20T13:00:44.983Z,47.69
2019-02-20T13:03:16.545Z,47.96
2019-02-20T13:05:47.021Z,47.81
2019-02-20T13:08:17.433Z,48.12
2019-02-20T13:10:47.928Z,47.94
2019-02-20T13:13:18.603Z,47.37
2019-02-20T13:15:49.188Z,47.60
2019-02-20T13:18:27.321Z,47.97
2019-02-20T13:20:59.883Z,48.56
2019-02-20T13:23:31.838Z,48.32
2019-02-20T13:26:02.370Z,48.75
2019-02-20T13:28:32.926Z,48.77
2019-02-20T13:31:03.322Z,48.93
2019-02-20T13:33:33.725Z,48.35
2019-02-20T13:36:04.602Z,47.80
2019-02-20T13:38:35.025Z,47.78
2019-02-20T13:41:05.760Z,47.45
2019-02-20T13:43:36.157Z,47.61
2019-02-20T13:46:06.724Z,47.51
2019-02-20T13:48:37.255Z,47.69
2019-02-20T13:51:07.786Z,47.74
2019-02-20T13:53:46.224Z,47.68
2019-02-20T13:56:10.508Z,47.73
2019-02-20T13:58:41.011Z,47.50
2019-02-20T14:01:11.453Z,47.87
2019-02-20T14:03:41.864Z,48.05
2019-02-20T14:06:12.263Z,48.21
2019-02-20T14:08:42.737Z,48.60
2019-02-20T14:11:13.393Z,48.67
2019-02-20T14:13:43.865Z,49.12
2019-02-20T14:16:14.888Z,49.19
2019-02-20T14:18:45.568Z,49.35
2019-02-20T14:21:15.985Z,50.38
2019-02-20T14:23:46.530Z,49.95
2019-02-20T14:26:16.923Z,50.16
2019-02-20T14:28:47.383Z,50.25
2019-02-20T14:31:18.122Z,50.04
2019-02-20T14:33:49.772Z,50.22
2019-02-20T14:36:20.206Z,50.31
2019-02-20T14:38:51.962Z,50.42
2019-02-20T14:41:22.424Z,49.97
2019-02-20T14:43:52.836Z,49.91
2019-02-20T14:46:23.345Z,49.90
2019-02-20T14:48:53.762Z,49.85
2019-02-20T14:51:24.209Z,49.84
2019-02-20T14:53:54.631Z,49.76
2019-02-20T14:56:25.518Z,49.86
2019-02-20T14:58:55.979Z,49.60
2019-02-20T15:01:27.454Z,49.67
2019-02-20T15:03:57.889Z,49.83
2019-02-20T15:06:28.727Z,49.68
2019-02-20T15:08:59.659Z,50.13
2019-02-20T15:11:30.239Z,49.81
2019-02-20T15:14:00.638Z,49.85
2019-02-20T15:16:31.155Z,49.83
2019-02-20T15:19:01.585Z,50.08
2019-02-20T15:21:32.119Z,49.95
2019-02-20T15:24:02.508Z,50.64
2019-02-20T15:26:32.970Z,50.55
2019-02-20T15:29:03.414Z,49.89
2019-02-20T15:31:34.154Z,49.91
2019-02-20T15:34:06.713Z,50.05
2019-02-20T15:36:37.143Z,49.93
2019-02-20T15:39:07.564Z,49.65
2019-02-20T15:41:38.162Z,50.06
2019-02-20T15:44:08.736Z,49.81
2019-02-20T15:46:39.269Z,49.88
2019-02-20T15:49:09.897Z,50.29
2019-02-20T15:51:40.313Z,50.18
2019-02-20T15:54:10.712Z,50.11
2019-02-20T15:56:41.248Z,50.16
2019-02-20T15:59:11.790Z,50.34
2019-02-20T16:01:42.216Z,50.45
2019-02-20T16:04:12.654Z,50.46
2019-02-20T16:06:44.428Z,50.22
2019-02-20T16:09:14.907Z,50.36
2019-02-20T16:11:45.465Z,50.44
2019-02-20T16:14:15.892Z,50.65
2019-02-20T16:16:46.623Z,50.48
2019-02-20T16:19:17.114Z,50.73
2019-02-20T16:21:47.526Z,50.49
2019-02-20T16:24:18.116Z,50.72
2019-02-20T16:26:48.537Z,50.99
2019-02-20T16:29:18.948Z,50.73
2019-02-20T16:31:49.714Z,50.65
2019-02-20T16:34:20.248Z,50.60
2019-02-20T16:36:50.672Z,50.25
2019-02-20T16:39:21.189Z,50.35
2019-02-20T16:41:59.224Z,50.21
2019-02-20T16:44:31.434Z,50.71
2019-02-20T16:47:04.505Z,50.92
2019-02-20T16:49:34.983Z,50.64
2019-02-20T16:52:05.503Z,50.42
2019-02-20T16:54:36.045Z,50.61
2019-02-20T16:57:06.893Z,50.53
2019-02-20T16:59:37.417Z,50.28
2019-02-20T17:02:08.080Z,50.54
2019-02-20T17:04:39.563Z,49.98
2019-02-20T17:07:10.143Z,50.10
2019-02-20T17:09:40.646Z,50.21
2019-02-20T17:12:11.177Z,50.29
2019-02-20T17:14:41.817Z,50.44
2019-02-20T17:17:13.773Z,49.91
2019-02-20T17:19:44.260Z,49.81
2019-02-20T17:22:14.738Z,49.83
2019-02-20T17:24:45.618Z,49.76
2019-02-20T17:27:16.109Z,49.67
2019-02-20T17:29:46.525Z,49.49
2019-02-20T17:32:16.946Z,49.62
2019-02-20T17:34:47.435Z,49.68
2019-02-20T17:37:17.831Z,49.56
2019-02-20T17:39:48.274Z,49.97
2019-02-20T17:42:18.772Z,49.89
2019-02-20T17:44:49.204Z,50.14
2019-02-20T17:47:19.682Z,49.93
2019-02-20T17:49:50.170Z,50.23
2019-02-20T17:52:21.008Z,50.26
2019-02-20T17:54:51.418Z,50.31
2019-02-20T17:57:21.958Z,51.64
2019-02-20T17:59:52.370Z,50.51
2019-02-20T18:02:22.925Z,50.50
2019-02-20T18:04:53.351Z,50.63
2019-02-20T18:07:23.747Z,50.53
2019-02-20T18:09:54.155Z,50.52
2019-02-20T18:12:24.638Z,50.52
2019-02-20T18:14:55.182Z,50.82
2019-02-20T18:17:26.413Z,50.37
2019-02-20T18:19:56.889Z,50.39
2019-02-20T18:22:27.340Z,50.45
2019-02-20T18:24:57.905Z,50.66
2019-02-20T18:27:28.313Z,50.49
2019-02-20T18:29:58.766Z,50.69
2019-02-20T18:32:29.196Z,50.77
2019-02-20T18:34:59.725Z,51.05
2019-02-20T18:37:30.258Z,50.91
2019-02-20T18:40:00.883Z,51.03
2019-02-20T18:42:31.412Z,51.00
2019-02-20T18:45:01.905Z,51.14
2019-02-20T18:47:33.911Z,50.80
2019-02-20T18:50:07.921Z,51.05
2019-02-20T18:52:38.333Z,51.17
2019-02-20T18:55:11.530Z,51.14
2019-02-20T18:57:42.078Z,51.43
2019-02-20T19:00:17.727Z,51.29
2019-02-20T19:02:48.252Z,51.28
2019-02-20T19:05:19.267Z,51.52
2019-02-20T19:07:50.046Z,51.44
2019-02-20T19:10:29.714Z,51.69
2019-02-20T19:13:06.659Z,51.64
2019-02-20T19:15:40.786Z,51.78
2019-02-20T19:18:14.687Z,52.01
2019-02-20T19:20:51.419Z,52.19
2019-02-20T19:24:00.489Z,52.53
2019-02-20T19:26:49.355Z,52.53
2019-02-20T19:29:40.525Z,52.76
2019-02-20T19:32:14.296Z,52.91
2019-02-20T19:35:13.788Z,53.09
2019-02-20T19:38:06.631Z,53.39
2019-02-20T19:40:47.321Z,53.22
2019-02-20T19:43:36.275Z,53.31
2019-02-20T19:46:31.389Z,53.48
2019-02-20T19:49:20.056Z,54.12
2019-02-20T19:52:14.672Z,53.86
2019-02-20T19:54:48.665Z,53.92
2019-02-20T19:57:37.605Z,54.03
2019-02-20T20:00:26.279Z,54.12
2019-02-20T20:02:59.911Z,54.19
2019-02-20T20:05:36.340Z,54.29
2019-02-20T20:08:16.091Z,54.46
2019-02-20T20:11:07.457Z,54.62
2019-02-20T20:13:46.834Z,54.64
2019-02-20T20:16:26.581Z,54.88
2019-02-20T20:19:29.172Z,54.96
2019-02-20T20:22:09.124Z,54.86
2019-02-20T20:24:51.999Z,54.80
2019-02-20T20:27:31.888Z,54.86
2019-02-20T20:30:35.701Z,55.00
